sensor_id;sensor_type;location;lat;lon;timestamp;temperature;humidity
34766;DHT22;20984;43.508;1.504;2023-09-18T00:01:01;19.20;99.90
34766;DHT22;20984;43.508;1.504;2023-09-18T00:03:26;19.20;99.90
34766;DHT22;20984;43.508;1.504;2023-09-18T00:05:52;19.30;99.90
34766;DHT22;20984;43.508;1.504;2023-09-18T00:08:18;19.30;99.90
34766;DHT22;20984;43.508;1.504;2023-09-18T00:10:51;19.30;99.90
34766;DHT22;20984;43.508;1.504;2023-09-18T00:13:17;19.30;99.90
34766;DHT22;20984;43.508;1.504;2023-09-18T00:15:42;19.20;99.90
34766;DHT22;20984;43.508;1.504;2023-09-18T00:18:10;19.30;99.90
34766;DHT22;20984;43.508;1.504;2023-09-18T00:20:36;19.30;99.90
34766;DHT22;20984;43.508;1.504;2023-09-18T00:23:01;19.30;99.90
34766;DHT22;20984;43.508;1.504;2023-09-18T00:25:27;19.30;99.90
34766;DHT22;20984;43.508;1.504;2023-09-18T00:27:53;19.40;99.90
34766;DHT22;20984;43.508;1.504;2023-09-18T00:30:19;19.40;99.90
34766;DHT22;20984;43.508;1.504;2023-09-18T00:32:44;19.30;99.90
34766;DHT22;20984;43.508;1.504;2023-09-18T00:35:12;19.30;99.90
34766;DHT22;20984;43.508;1.504;2023-09-18T00:37:37;19.30;99.90
34766;DHT22;20984;43.508;1.504;2023-09-18T00:40:05;19.30;99.90
34766;DHT22;20984;43.508;1.504;2023-09-18T00:42:31;19.30;99.90
34766;DHT22;20984;43.508;1.504;2023-09-18T00:44:57;19.30;99.90
34766;DHT22;20984;43.508;1.504;2023-09-18T00:47:23;19.30;99.90
34766;DHT22;20984;43.508;1.504;2023-09-18T00:49:48;19.30;99.90
34766;DHT22;20984;43.508;1.504;2023-09-18T00:52:15;19.30;99.90
34766;DHT22;20984;43.508;1.504;2023-09-18T00:54:41;19.20;99.90
34766;DHT22;20984;43.508;1.504;2023-09-18T00:57:08;19.20;99.90
34766;DHT22;20984;43.508;1.504;2023-09-18T00:59:33;19.20;99.90
34766;DHT22;20984;43.508;1.504;2023-09-18T01:01:59;19.20;99.90
34766;DHT22;20984;43.508;1.504;2023-09-18T01:04:25;19.20;99.90
34766;DHT22;20984;43.508;1.504;2023-09-18T01:06:52;19.20;99.90
34766;DHT22;20984;43.508;1.504;2023-09-18T01:09:19;19.20;99.90
34766;DHT22;20984;43.508;1.504;2023-09-18T01:11:56;19.20;99.90
34766;DHT22;20984;43.508;1.504;2023-09-18T01:22:05;18.80;99.90
34766;DHT22;20984;43.508;1.504;2023-09-18T01:24:32;18.80;99.90
34766;DHT22;20984;43.508;1.504;2023-09-18T01:26:57;18.80;99.90
34766;DHT22;20984;43.508;1.504;2023-09-18T01:29:23;18.80;99.90
34766;DHT22;20984;43.508;1.504;2023-09-18T01:31:48;18.80;99.90
34766;DHT22;20984;43.508;1.504;2023-09-18T01:34:18;18.70;99.90
34766;DHT22;20984;43.508;1.504;2023-09-18T01:36:45;18.70;99.90
34766;DHT22;20984;43.508;1.504;2023-09-18T01:39:11;18.60;99.90
34766;DHT22;20984;43.508;1.504;2023-09-18T01:41:37;18.60;99.90
34766;DHT22;20984;43.508;1.504;2023-09-18T01:44:03;18.60;99.90
34766;DHT22;20984;43.508;1.504;2023-09-18T01:46:30;18.50;99.90
34766;DHT22;20984;43.508;1.504;2023-09-18T01:48:58;18.60;99.90
34766;DHT22;20984;43.508;1.504;2023-09-18T01:51:24;18.60;99.90
34766;DHT22;20984;43.508;1.504;2023-09-18T01:53:49;18.60;99.90
34766;DHT22;20984;43.508;1.504;2023-09-18T01:56:15;18.70;99.90
34766;DHT22;20984;43.508;1.504;2023-09-18T01:58:40;18.70;99.90
34766;DHT22;20984;43.508;1.504;2023-09-18T02:01:06;18.70;99.90
34766;DHT22;20984;43.508;1.504;2023-09-18T02:03:31;18.70;99.90
34766;DHT22;20984;43.508;1.504;2023-09-18T02:05:57;18.70;99.90
34766;DHT22;20984;43.508;1.504;2023-09-18T02:08:23;18.70;99.90
34766;DHT22;20984;43.508;1.504;2023-09-18T02:10:48;18.70;99.90
34766;DHT22;20984;43.508;1.504;2023-09-18T02:13:14;18.70;99.90
34766;DHT22;20984;43.508;1.504;2023-09-18T02:15:39;18.60;99.90
34766;DHT22;20984;43.508;1.504;2023-09-18T02:18:05;18.60;99.90
34766;DHT22;20984;43.508;1.504;2023-09-18T02:20:30;18.60;99.90
34766;DHT22;20984;43.508;1.504;2023-09-18T02:22:56;18.60;99.90
34766;DHT22;20984;43.508;1.504;2023-09-18T02:25:21;18.60;99.90
34766;DHT22;20984;43.508;1.504;2023-09-18T02:27:47;18.70;99.90
34766;DHT22;20984;43.508;1.504;2023-09-18T02:30:13;18.60;99.90
34766;DHT22;20984;43.508;1.504;2023-09-18T02:32:38;18.60;99.90
34766;DHT22;20984;43.508;1.504;2023-09-18T02:35:04;18.70;99.90
34766;DHT22;20984;43.508;1.504;2023-09-18T02:37:32;18.70;99.90
34766;DHT22;20984;43.508;1.504;2023-09-18T02:39:58;18.60;99.90
34766;DHT22;20984;43.508;1.504;2023-09-18T02:42:23;18.60;99.90
34766;DHT22;20984;43.508;1.504;2023-09-18T02:44:49;18.60;99.90
34766;DHT22;20984;43.508;1.504;2023-09-18T02:47:14;18.60;99.90
34766;DHT22;20984;43.508;1.504;2023-09-18T02:49:40;18.60;99.90
34766;DHT22;20984;43.508;1.504;2023-09-18T02:52:05;18.60;99.90
34766;DHT22;20984;43.508;1.504;2023-09-18T02:54:31;18.60;99.90
34766;DHT22;20984;43.508;1.504;2023-09-18T02:56:56;18.50;99.90
34766;DHT22;20984;43.508;1.504;2023-09-18T02:59:22;18.50;99.90
34766;DHT22;20984;43.508;1.504;2023-09-18T03:01:47;18.50;99.90
34766;DHT22;20984;43.508;1.504;2023-09-18T03:04:13;18.50;99.90
34766;DHT22;20984;43.508;1.504;2023-09-18T03:06:38;18.50;99.90
34766;DHT22;20984;43.508;1.504;2023-09-18T03:09:05;18.50;99.90
34766;DHT22;20984;43.508;1.504;2023-09-18T03:11:30;18.60;99.90
34766;DHT22;20984;43.508;1.504;2023-09-18T03:13:56;18.60;99.90
34766;DHT22;20984;43.508;1.504;2023-09-18T03:16:21;18.70;99.90
34766;DHT22;20984;43.508;1.504;2023-09-18T03:18:47;18.70;99.90
34766;DHT22;20984;43.508;1.504;2023-09-18T03:21:12;18.80;99.90
34766;DHT22;20984;43.508;1.504;2023-09-18T03:23:38;18.80;99.90
34766;DHT22;20984;43.508;1.504;2023-09-18T03:26:04;18.90;99.90
34766;DHT22;20984;43.508;1.504;2023-09-18T03:28:29;18.90;99.90
34766;DHT22;20984;43.508;1.504;2023-09-18T03:30:55;18.80;99.90
34766;DHT22;20984;43.508;1.504;2023-09-18T03:33:20;18.80;99.90
34766;DHT22;20984;43.508;1.504;2023-09-18T03:35:49;18.80;99.90
34766;DHT22;20984;43.508;1.504;2023-09-18T03:38:15;18.80;99.90
34766;DHT22;20984;43.508;1.504;2023-09-18T03:40:41;18.80;99.90
34766;DHT22;20984;43.508;1.504;2023-09-18T03:43:07;18.70;99.90
34766;DHT22;20984;43.508;1.504;2023-09-18T03:45:32;18.70;99.90
34766;DHT22;20984;43.508;1.504;2023-09-18T03:47:58;18.70;99.90
34766;DHT22;20984;43.508;1.504;2023-09-18T03:50:23;18.60;99.90
34766;DHT22;20984;43.508;1.504;2023-09-18T03:52:49;18.60;99.90
34766;DHT22;20984;43.508;1.504;2023-09-18T03:55:14;18.60;99.90
34766;DHT22;20984;43.508;1.504;2023-09-18T03:57:42;18.60;99.90
34766;DHT22;20984;43.508;1.504;2023-09-18T04:00:07;18.60;99.90
34766;DHT22;20984;43.508;1.504;2023-09-18T04:02:33;18.60;99.90
34766;DHT22;20984;43.508;1.504;2023-09-18T04:05:00;18.50;99.90
34766;DHT22;20984;43.508;1.504;2023-09-18T04:07:25;18.50;99.90
34766;DHT22;20984;43.508;1.504;2023-09-18T04:09:51;18.50;99.90
34766;DHT22;20984;43.508;1.504;2023-09-18T04:12:16;18.40;99.90
34766;DHT22;20984;43.508;1.504;2023-09-18T04:14:42;18.40;99.90
34766;DHT22;20984;43.508;1.504;2023-09-18T04:17:08;18.40;99.90
34766;DHT22;20984;43.508;1.504;2023-09-18T04:19:34;18.40;99.90
34766;DHT22;20984;43.508;1.504;2023-09-18T04:21:59;18.40;99.90
34766;DHT22;20984;43.508;1.504;2023-09-18T04:24:25;18.40;99.90
34766;DHT22;20984;43.508;1.504;2023-09-18T04:26:50;18.40;99.90
34766;DHT22;20984;43.508;1.504;2023-09-18T04:29:16;18.40;99.90
34766;DHT22;20984;43.508;1.504;2023-09-18T04:31:42;18.50;99.90
34766;DHT22;20984;43.508;1.504;2023-09-18T04:34:07;18.50;99.90
34766;DHT22;20984;43.508;1.504;2023-09-18T04:36:33;18.50;99.90
34766;DHT22;20984;43.508;1.504;2023-09-18T04:38:59;18.60;99.90
34766;DHT22;20984;43.508;1.504;2023-09-18T04:41:24;18.60;99.90
34766;DHT22;20984;43.508;1.504;2023-09-18T04:43:50;18.50;99.90
34766;DHT22;20984;43.508;1.504;2023-09-18T04:46:16;18.60;99.90
34766;DHT22;20984;43.508;1.504;2023-09-18T04:48:41;18.60;99.90
34766;DHT22;20984;43.508;1.504;2023-09-18T04:51:07;18.50;99.90
34766;DHT22;20984;43.508;1.504;2023-09-18T04:53:32;18.40;99.90
34766;DHT22;20984;43.508;1.504;2023-09-18T04:55:58;18.40;99.90
34766;DHT22;20984;43.508;1.504;2023-09-18T04:58:24;18.40;99.90
34766;DHT22;20984;43.508;1.504;2023-09-18T05:00:53;18.30;99.90
34766;DHT22;20984;43.508;1.504;2023-09-18T05:03:18;18.20;99.90
34766;DHT22;20984;43.508;1.504;2023-09-18T05:05:44;18.20;99.90
34766;DHT22;20984;43.508;1.504;2023-09-18T05:08:09;18.10;99.90
34766;DHT22;20984;43.508;1.504;2023-09-18T05:10:35;18.00;99.90
34766;DHT22;20984;43.508;1.504;2023-09-18T05:13:01;17.90;99.90
34766;DHT22;20984;43.508;1.504;2023-09-18T05:15:27;17.90;99.90
34766;DHT22;20984;43.508;1.504;2023-09-18T05:17:56;17.90;99.90
34766;DHT22;20984;43.508;1.504;2023-09-18T05:20:26;17.90;99.90
34766;DHT22;20984;43.508;1.504;2023-09-18T05:22:53;18.00;99.90
34766;DHT22;20984;43.508;1.504;2023-09-18T05:25:19;18.00;99.90
34766;DHT22;20984;43.508;1.504;2023-09-18T05:27:47;18.10;99.90
34766;DHT22;20984;43.508;1.504;2023-09-18T05:30:19;18.20;99.90
34766;DHT22;20984;43.508;1.504;2023-09-18T05:32:47;18.30;99.90
34766;DHT22;20984;43.508;1.504;2023-09-18T05:35:13;18.30;99.90
34766;DHT22;20984;43.508;1.504;2023-09-18T05:37:39;18.30;99.90
34766;DHT22;20984;43.508;1.504;2023-09-18T05:40:05;18.40;99.90
34766;DHT22;20984;43.508;1.504;2023-09-18T05:42:32;18.50;99.90
34766;DHT22;20984;43.508;1.504;2023-09-18T05:44:57;18.50;99.90
34766;DHT22;20984;43.508;1.504;2023-09-18T05:47:23;18.50;99.90
34766;DHT22;20984;43.508;1.504;2023-09-18T05:49:49;18.60;99.90
34766;DHT22;20984;43.508;1.504;2023-09-18T05:52:15;18.70;99.90
34766;DHT22;20984;43.508;1.504;2023-09-18T05:54:40;18.70;99.90
34766;DHT22;20984;43.508;1.504;2023-09-18T05:57:06;18.70;99.90
34766;DHT22;20984;43.508;1.504;2023-09-18T05:59:32;18.70;99.90
34766;DHT22;20984;43.508;1.504;2023-09-18T06:01:57;18.70;99.90
34766;DHT22;20984;43.508;1.504;2023-09-18T06:04:23;18.70;99.90
34766;DHT22;20984;43.508;1.504;2023-09-18T06:06:49;18.80;99.90
34766;DHT22;20984;43.508;1.504;2023-09-18T06:09:14;18.80;99.90
34766;DHT22;20984;43.508;1.504;2023-09-18T06:11:41;18.80;99.90
34766;DHT22;20984;43.508;1.504;2023-09-18T06:14:07;18.70;99.90
34766;DHT22;20984;43.508;1.504;2023-09-18T06:16:32;18.70;99.90
34766;DHT22;20984;43.508;1.504;2023-09-18T06:18:58;18.80;99.90
34766;DHT22;20984;43.508;1.504;2023-09-18T06:21:25;18.80;99.90
34766;DHT22;20984;43.508;1.504;2023-09-18T06:23:51;18.90;99.90
34766;DHT22;20984;43.508;1.504;2023-09-18T06:26:17;18.90;99.90
34766;DHT22;20984;43.508;1.504;2023-09-18T06:28:43;19.00;99.90
34766;DHT22;20984;43.508;1.504;2023-09-18T06:31:08;19.10;99.90
34766;DHT22;20984;43.508;1.504;2023-09-18T06:33:34;19.10;99.90
34766;DHT22;20984;43.508;1.504;2023-09-18T06:35:59;19.20;99.90
34766;DHT22;20984;43.508;1.504;2023-09-18T06:38:25;19.40;99.90
34766;DHT22;20984;43.508;1.504;2023-09-18T06:40:51;19.50;99.90
34766;DHT22;20984;43.508;1.504;2023-09-18T06:43:18;19.80;99.90
34766;DHT22;20984;43.508;1.504;2023-09-18T06:45:43;19.90;99.90
34766;DHT22;20984;43.508;1.504;2023-09-18T06:48:09;19.90;99.90
34766;DHT22;20984;43.508;1.504;2023-09-18T06:50:34;19.90;99.90
34766;DHT22;20984;43.508;1.504;2023-09-18T06:53:01;19.90;99.90
34766;DHT22;20984;43.508;1.504;2023-09-18T06:55:27;20.10;99.90
34766;DHT22;20984;43.508;1.504;2023-09-18T06:57:52;20.10;99.90
34766;DHT22;20984;43.508;1.504;2023-09-18T07:00:18;20.10;99.90
34766;DHT22;20984;43.508;1.504;2023-09-18T07:02:46;20.20;99.90
34766;DHT22;20984;43.508;1.504;2023-09-18T07:05:12;20.20;99.90
34766;DHT22;20984;43.508;1.504;2023-09-18T07:07:37;20.20;99.90
34766;DHT22;20984;43.508;1.504;2023-09-18T07:10:03;20.30;99.90
34766;DHT22;20984;43.508;1.504;2023-09-18T07:12:28;20.30;99.90
34766;DHT22;20984;43.508;1.504;2023-09-18T07:14:54;20.40;99.90
34766;DHT22;20984;43.508;1.504;2023-09-18T07:17:19;20.40;99.90
34766;DHT22;20984;43.508;1.504;2023-09-18T07:19:45;20.50;99.90
34766;DHT22;20984;43.508;1.504;2023-09-18T07:22:10;20.60;99.90
34766;DHT22;20984;43.508;1.504;2023-09-18T07:24:36;20.60;99.90
34766;DHT22;20984;43.508;1.504;2023-09-18T07:27:06;20.70;99.90
34766;DHT22;20984;43.508;1.504;2023-09-18T07:29:31;20.80;99.90
34766;DHT22;20984;43.508;1.504;2023-09-18T07:31:57;20.80;99.90
34766;DHT22;20984;43.508;1.504;2023-09-18T07:34:22;20.90;99.90
34766;DHT22;20984;43.508;1.504;2023-09-18T07:36:48;21.00;99.90
34766;DHT22;20984;43.508;1.504;2023-09-18T07:39:19;21.10;99.90
34766;DHT22;20984;43.508;1.504;2023-09-18T07:41:44;21.10;99.90
34766;DHT22;20984;43.508;1.504;2023-09-18T07:44:10;21.10;99.90
34766;DHT22;20984;43.508;1.504;2023-09-18T07:46:35;21.20;99.90
34766;DHT22;20984;43.508;1.504;2023-09-18T07:49:01;21.30;99.90
34766;DHT22;20984;43.508;1.504;2023-09-18T07:51:27;21.40;99.90
34766;DHT22;20984;43.508;1.504;2023-09-18T07:53:52;21.50;99.90
34766;DHT22;20984;43.508;1.504;2023-09-18T07:56:17;21.50;99.90
34766;DHT22;20984;43.508;1.504;2023-09-18T07:58:44;21.50;99.90
34766;DHT22;20984;43.508;1.504;2023-09-18T08:01:12;21.60;99.90
34766;DHT22;20984;43.508;1.504;2023-09-18T08:03:37;21.60;99.90
34766;DHT22;20984;43.508;1.504;2023-09-18T08:06:03;21.70;99.90
34766;DHT22;20984;43.508;1.504;2023-09-18T08:08:29;21.80;99.90
34766;DHT22;20984;43.508;1.504;2023-09-18T08:10:57;21.70;99.90
34766;DHT22;20984;43.508;1.504;2023-09-18T08:13:23;21.70;99.90
34766;DHT22;20984;43.508;1.504;2023-09-18T08:15:49;21.70;99.90
34766;DHT22;20984;43.508;1.504;2023-09-18T08:18:16;21.80;99.90
34766;DHT22;20984;43.508;1.504;2023-09-18T08:20:42;21.90;99.90
34766;DHT22;20984;43.508;1.504;2023-09-18T08:23:08;22.00;99.90
34766;DHT22;20984;43.508;1.504;2023-09-18T08:25:34;22.10;99.90
34766;DHT22;20984;43.508;1.504;2023-09-18T08:27:59;22.10;99.90
34766;DHT22;20984;43.508;1.504;2023-09-18T08:30:25;22.20;99.90
34766;DHT22;20984;43.508;1.504;2023-09-18T08:32:51;22.20;99.90
34766;DHT22;20984;43.508;1.504;2023-09-18T08:35:16;22.20;99.90
34766;DHT22;20984;43.508;1.504;2023-09-18T08:37:42;22.30;99.90
34766;DHT22;20984;43.508;1.504;2023-09-18T08:40:11;22.30;99.90
34766;DHT22;20984;43.508;1.504;2023-09-18T08:42:45;22.30;99.90
34766;DHT22;20984;43.508;1.504;2023-09-18T08:45:12;22.40;99.90
34766;DHT22;20984;43.508;1.504;2023-09-18T08:47:39;22.40;99.90
34766;DHT22;20984;43.508;1.504;2023-09-18T08:50:06;22.30;99.90
34766;DHT22;20984;43.508;1.504;2023-09-18T08:52:32;22.30;99.90
34766;DHT22;20984;43.508;1.504;2023-09-18T08:54:58;22.20;99.90
34766;DHT22;20984;43.508;1.504;2023-09-18T08:57:26;22.40;99.90
34766;DHT22;20984;43.508;1.504;2023-09-18T08:59:52;22.50;99.90
34766;DHT22;20984;43.508;1.504;2023-09-18T09:02:19;22.60;99.90
34766;DHT22;20984;43.508;1.504;2023-09-18T09:04:45;22.60;99.90
34766;DHT22;20984;43.508;1.504;2023-09-18T09:07:10;22.60;99.90
34766;DHT22;20984;43.508;1.504;2023-09-18T09:09:36;22.50;99.90
34766;DHT22;20984;43.508;1.504;2023-09-18T09:12:01;22.50;99.90
34766;DHT22;20984;43.508;1.504;2023-09-18T09:14:27;22.60;99.90
34766;DHT22;20984;43.508;1.504;2023-09-18T09:16:56;22.70;99.90
34766;DHT22;20984;43.508;1.504;2023-09-18T09:19:30;22.80;99.90
34766;DHT22;20984;43.508;1.504;2023-09-18T09:21:55;22.90;99.90
34766;DHT22;20984;43.508;1.504;2023-09-18T09:24:40;22.90;99.90
34766;DHT22;20984;43.508;1.504;2023-09-18T09:27:06;23.00;99.90
34766;DHT22;20984;43.508;1.504;2023-09-18T09:29:31;23.10;99.90
34766;DHT22;20984;43.508;1.504;2023-09-18T09:32:11;23.20;99.90
34766;DHT22;20984;43.508;1.504;2023-09-18T09:34:37;23.30;99.90
34766;DHT22;20984;43.508;1.504;2023-09-18T09:37:02;23.30;99.90
34766;DHT22;20984;43.508;1.504;2023-09-18T09:39:29;23.40;99.90
34766;DHT22;20984;43.508;1.504;2023-09-18T09:41:59;23.40;99.90
34766;DHT22;20984;43.508;1.504;2023-09-18T09:44:24;23.50;99.90
34766;DHT22;20984;43.508;1.504;2023-09-18T09:46:50;23.50;99.90
34766;DHT22;20984;43.508;1.504;2023-09-18T09:49:16;23.60;99.90
34766;DHT22;20984;43.508;1.504;2023-09-18T09:51:43;23.60;99.90
34766;DHT22;20984;43.508;1.504;2023-09-18T09:54:09;23.60;99.90
34766;DHT22;20984;43.508;1.504;2023-09-18T09:56:54;23.60;99.90
34766;DHT22;20984;43.508;1.504;2023-09-18T09:59:19;23.70;99.90
34766;DHT22;20984;43.508;1.504;2023-09-18T10:01:46;23.80;99.90
34766;DHT22;20984;43.508;1.504;2023-09-18T10:04:13;23.90;99.90
34766;DHT22;20984;43.508;1.504;2023-09-18T10:06:43;24.00;99.90
34766;DHT22;20984;43.508;1.504;2023-09-18T10:09:10;24.20;99.90
34766;DHT22;20984;43.508;1.504;2023-09-18T10:11:40;24.20;99.90
34766;DHT22;20984;43.508;1.504;2023-09-18T10:14:10;24.20;99.90
34766;DHT22;20984;43.508;1.504;2023-09-18T10:16:37;24.30;99.90
34766;DHT22;20984;43.508;1.504;2023-09-18T10:19:14;24.30;99.90
34766;DHT22;20984;43.508;1.504;2023-09-18T10:21:53;24.30;99.90
34766;DHT22;20984;43.508;1.504;2023-09-18T10:24:24;24.30;99.90
34766;DHT22;20984;43.508;1.504;2023-09-18T10:26:51;24.30;99.90
34766;DHT22;20984;43.508;1.504;2023-09-18T10:29:20;24.40;99.90
34766;DHT22;20984;43.508;1.504;2023-09-18T10:31:47;24.30;99.90
34766;DHT22;20984;43.508;1.504;2023-09-18T10:34:13;24.40;99.90
34766;DHT22;20984;43.508;1.504;2023-09-18T10:36:41;24.40;99.90
34766;DHT22;20984;43.508;1.504;2023-09-18T10:39:06;24.50;99.90
34766;DHT22;20984;43.508;1.504;2023-09-18T10:41:36;24.60;99.90
34766;DHT22;20984;43.508;1.504;2023-09-18T10:44:02;24.70;99.90
34766;DHT22;20984;43.508;1.504;2023-09-18T10:46:29;24.80;99.90
34766;DHT22;20984;43.508;1.504;2023-09-18T10:48:55;24.80;99.90
34766;DHT22;20984;43.508;1.504;2023-09-18T10:51:21;24.80;99.90
34766;DHT22;20984;43.508;1.504;2023-09-18T10:53:47;24.80;99.90
34766;DHT22;20984;43.508;1.504;2023-09-18T10:56:17;24.90;99.90
34766;DHT22;20984;43.508;1.504;2023-09-18T10:58:43;24.90;99.90
34766;DHT22;20984;43.508;1.504;2023-09-18T11:01:11;24.90;99.90
34766;DHT22;20984;43.508;1.504;2023-09-18T11:03:37;24.90;99.90
34766;DHT22;20984;43.508;1.504;2023-09-18T11:06:03;25.00;99.90
34766;DHT22;20984;43.508;1.504;2023-09-18T11:08:30;24.90;99.90
34766;DHT22;20984;43.508;1.504;2023-09-18T11:11:00;24.90;99.90
34766;DHT22;20984;43.508;1.504;2023-09-18T11:13:36;24.80;99.90
34766;DHT22;20984;43.508;1.504;2023-09-18T11:18:48;24.90;99.90
34766;DHT22;20984;43.508;1.504;2023-09-18T11:21:15;25.00;99.90
34766;DHT22;20984;43.508;1.504;2023-09-18T11:23:43;25.00;99.90
34766;DHT22;20984;43.508;1.504;2023-09-18T11:26:11;25.10;99.90
34766;DHT22;20984;43.508;1.504;2023-09-18T11:28:37;25.20;99.90
34766;DHT22;20984;43.508;1.504;2023-09-18T11:31:03;25.20;99.90
34766;DHT22;20984;43.508;1.504;2023-09-18T11:33:29;25.30;99.90
34766;DHT22;20984;43.508;1.504;2023-09-18T11:35:55;25.30;99.90
34766;DHT22;20984;43.508;1.504;2023-09-18T11:38:21;25.30;99.90
34766;DHT22;20984;43.508;1.504;2023-09-18T11:40:48;25.30;99.90
34766;DHT22;20984;43.508;1.504;2023-09-18T11:43:21;25.30;99.90
34766;DHT22;20984;43.508;1.504;2023-09-18T11:45:58;25.30;99.90
34766;DHT22;20984;43.508;1.504;2023-09-18T11:48:24;25.40;99.90
34766;DHT22;20984;43.508;1.504;2023-09-18T11:50:53;25.50;99.90
34766;DHT22;20984;43.508;1.504;2023-09-18T11:53:20;25.60;99.90
34766;DHT22;20984;43.508;1.504;2023-09-18T11:55:45;25.80;99.90
34766;DHT22;20984;43.508;1.504;2023-09-18T11:58:12;25.90;99.90
34766;DHT22;20984;43.508;1.504;2023-09-18T12:00:38;26.00;99.90
34766;DHT22;20984;43.508;1.504;2023-09-18T12:03:14;26.00;99.90
34766;DHT22;20984;43.508;1.504;2023-09-18T12:05:43;26.10;99.90
34766;DHT22;20984;43.508;1.504;2023-09-18T12:08:09;26.20;99.90
34766;DHT22;20984;43.508;1.504;2023-09-18T12:10:36;26.30;99.90
34766;DHT22;20984;43.508;1.504;2023-09-18T12:13:05;26.30;99.90
34766;DHT22;20984;43.508;1.504;2023-09-18T12:15:32;26.20;99.90
34766;DHT22;20984;43.508;1.504;2023-09-18T12:18:04;26.40;99.90
34766;DHT22;20984;43.508;1.504;2023-09-18T12:20:31;26.70;99.90
34766;DHT22;20984;43.508;1.504;2023-09-18T12:22:59;26.80;99.90
34766;DHT22;20984;43.508;1.504;2023-09-18T12:25:24;26.70;99.90
34766;DHT22;20984;43.508;1.504;2023-09-18T12:27:53;26.60;99.90
34766;DHT22;20984;43.508;1.504;2023-09-18T12:30:19;26.80;99.90
34766;DHT22;20984;43.508;1.504;2023-09-18T12:32:46;26.90;99.90
34766;DHT22;20984;43.508;1.504;2023-09-18T12:35:16;27.00;99.90
34766;DHT22;20984;43.508;1.504;2023-09-18T12:37:43;27.10;99.90
34766;DHT22;20984;43.508;1.504;2023-09-18T12:40:25;27.20;99.90
34766;DHT22;20984;43.508;1.504;2023-09-18T12:42:51;27.30;99.90
34766;DHT22;20984;43.508;1.504;2023-09-18T12:45:19;27.30;99.90
34766;DHT22;20984;43.508;1.504;2023-09-18T12:47:45;27.30;99.90
34766;DHT22;20984;43.508;1.504;2023-09-18T12:50:12;27.50;99.90
34766;DHT22;20984;43.508;1.504;2023-09-18T12:52:38;27.50;99.90
34766;DHT22;20984;43.508;1.504;2023-09-18T12:55:03;27.60;99.90
34766;DHT22;20984;43.508;1.504;2023-09-18T12:57:32;27.40;99.90
34766;DHT22;20984;43.508;1.504;2023-09-18T12:59:58;27.40;99.90
34766;DHT22;20984;43.508;1.504;2023-09-18T13:02:23;27.40;99.90
34766;DHT22;20984;43.508;1.504;2023-09-18T13:04:53;27.50;99.90
34766;DHT22;20984;43.508;1.504;2023-09-18T13:07:18;27.50;99.90
34766;DHT22;20984;43.508;1.504;2023-09-18T13:10:00;27.50;99.90
34766;DHT22;20984;43.508;1.504;2023-09-18T13:15:10;27.70;99.90
34766;DHT22;20984;43.508;1.504;2023-09-18T13:17:44;27.70;99.90
34766;DHT22;20984;43.508;1.504;2023-09-18T13:20:11;27.80;99.90
34766;DHT22;20984;43.508;1.504;2023-09-18T13:22:38;28.00;99.90
34766;DHT22;20984;43.508;1.504;2023-09-18T13:25:05;28.10;99.90
34766;DHT22;20984;43.508;1.504;2023-09-18T13:27:30;28.20;99.90
34766;DHT22;20984;43.508;1.504;2023-09-18T13:29:58;27.90;99.90
34766;DHT22;20984;43.508;1.504;2023-09-18T13:32:35;27.80;99.90
34766;DHT22;20984;43.508;1.504;2023-09-18T13:35:01;27.60;99.90
34766;DHT22;20984;43.508;1.504;2023-09-18T13:37:27;27.30;99.90
34766;DHT22;20984;43.508;1.504;2023-09-18T13:39:54;27.30;99.90
34766;DHT22;20984;43.508;1.504;2023-09-18T13:42:20;27.10;99.90
34766;DHT22;20984;43.508;1.504;2023-09-18T13:44:45;27.00;99.90
34766;DHT22;20984;43.508;1.504;2023-09-18T13:47:12;26.90;99.90
34766;DHT22;20984;43.508;1.504;2023-09-18T13:49:38;26.90;99.90
34766;DHT22;20984;43.508;1.504;2023-09-18T13:52:04;26.90;99.90
34766;DHT22;20984;43.508;1.504;2023-09-18T13:54:29;27.00;99.90
34766;DHT22;20984;43.508;1.504;2023-09-18T13:56:55;27.00;99.90
34766;DHT22;20984;43.508;1.504;2023-09-18T13:59:21;26.90;99.90
34766;DHT22;20984;43.508;1.504;2023-09-18T14:01:46;26.90;99.90
34766;DHT22;20984;43.508;1.504;2023-09-18T14:04:13;26.90;99.90
34766;DHT22;20984;43.508;1.504;2023-09-18T14:06:38;26.90;99.90
34766;DHT22;20984;43.508;1.504;2023-09-18T14:09:04;26.90;99.60
34766;DHT22;20984;43.508;1.504;2023-09-18T14:11:31;26.70;99.90
34766;DHT22;20984;43.508;1.504;2023-09-18T14:13:56;26.70;99.90
34766;DHT22;20984;43.508;1.504;2023-09-18T14:16:22;26.60;99.90
34766;DHT22;20984;43.508;1.504;2023-09-18T14:18:47;26.50;99.90
34766;DHT22;20984;43.508;1.504;2023-09-18T14:21:13;26.30;99.90
34766;DHT22;20984;43.508;1.504;2023-09-18T14:23:39;26.20;99.90
34766;DHT22;20984;43.508;1.504;2023-09-18T14:26:04;26.20;99.90
34766;DHT22;20984;43.508;1.504;2023-09-18T14:28:31;26.10;99.90
34766;DHT22;20984;43.508;1.504;2023-09-18T14:30:58;26.00;99.90
34766;DHT22;20984;43.508;1.504;2023-09-18T14:33:23;26.00;99.90
34766;DHT22;20984;43.508;1.504;2023-09-18T14:35:49;25.90;99.90
34766;DHT22;20984;43.508;1.504;2023-09-18T14:38:15;25.80;99.90
34766;DHT22;20984;43.508;1.504;2023-09-18T14:40:41;25.80;99.90
34766;DHT22;20984;43.508;1.504;2023-09-18T14:43:07;25.70;99.90
34766;DHT22;20984;43.508;1.504;2023-09-18T14:45:32;25.60;99.90
34766;DHT22;20984;43.508;1.504;2023-09-18T14:47:58;25.60;99.90
34766;DHT22;20984;43.508;1.504;2023-09-18T14:50:23;25.70;99.90
34766;DHT22;20984;43.508;1.504;2023-09-18T14:52:49;25.90;99.90
34766;DHT22;20984;43.508;1.504;2023-09-18T14:55:15;26.20;99.90
34766;DHT22;20984;43.508;1.504;2023-09-18T14:57:40;26.50;99.90
34766;DHT22;20984;43.508;1.504;2023-09-18T15:00:06;26.50;99.50
34766;DHT22;20984;43.508;1.504;2023-09-18T15:02:32;27.50;98.40
34766;DHT22;20984;43.508;1.504;2023-09-18T15:05:00;27.90;98.40
34766;DHT22;20984;43.508;1.504;2023-09-18T15:07:25;28.10;97.80
34766;DHT22;20984;43.508;1.504;2023-09-18T15:09:52;27.60;98.10
34766;DHT22;20984;43.508;1.504;2023-09-18T15:12:17;27.00;98.70
34766;DHT22;20984;43.508;1.504;2023-09-18T15:14:43;27.10;99.30
34766;DHT22;20984;43.508;1.504;2023-09-18T15:17:09;27.70;98.20
34766;DHT22;20984;43.508;1.504;2023-09-18T15:19:34;27.80;96.10
34766;DHT22;20984;43.508;1.504;2023-09-18T15:22:00;27.50;96.00
34766;DHT22;20984;43.508;1.504;2023-09-18T15:24:26;27.50;96.20
34766;DHT22;20984;43.508;1.504;2023-09-18T15:26:52;27.80;96.30
34766;DHT22;20984;43.508;1.504;2023-09-18T15:29:17;28.50;95.60
34766;DHT22;20984;43.508;1.504;2023-09-18T15:31:43;29.30;94.60
34766;DHT22;20984;43.508;1.504;2023-09-18T15:34:10;29.50;93.10
34766;DHT22;20984;43.508;1.504;2023-09-18T15:36:35;30.00;92.80
34766;DHT22;20984;43.508;1.504;2023-09-18T15:39:01;29.70;91.70